createdAt,value
2023-04-25T00:00:01.118Z,0.30
2023-04-25T00:01:01.208Z,0.36
2023-04-25T00:02:01.223Z,0.44
2023-04-25T00:03:01.976Z,0.31
2023-04-25T00:04:01.440Z,0.36
2023-04-25T00:05:01.371Z,0.54
2023-04-25T00:06:01.288Z,0.19
2023-04-25T00:07:01.335Z,0.37
2023-04-25T00:08:01.458Z,0.48
2023-04-25T00:09:01.360Z,0.39
2023-04-25T00:10:01.419Z,0.17
2023-04-25T00:11:01.490Z,0.70
2023-04-25T00:12:01.578Z,0.27
2023-04-25T00:13:01.558Z,0.34
2023-04-25T00:14:01.550Z,0.35
2023-04-25T00:15:01.660Z,0.34
2023-04-25T00:16:01.662Z,0.26
2023-04-25T00:17:01.651Z,0.16
2023-04-25T00:18:01.827Z,0.16
2023-04-25T00:19:01.727Z,0.30
2023-04-25T00:20:01.766Z,0.66
2023-04-25T00:21:01.788Z,0.28
2023-04-25T00:22:01.782Z,0.34
2023-04-25T00:23:01.847Z,0.29
2023-04-25T00:24:01.882Z,0.45
2023-04-25T00:25:01.879Z,0.15
2023-04-25T00:26:01.944Z,0.33
2023-04-25T00:27:02.000Z,0.14
2023-04-25T00:28:02.001Z,0.24
2023-04-25T00:29:02.066Z,0.20
2023-04-25T00:30:02.087Z,0.34
2023-04-25T00:31:02.148Z,0.37
2023-04-25T00:32:02.186Z,0.35
2023-04-25T00:33:02.220Z,0.26
2023-04-25T00:34:02.236Z,0.45
2023-04-25T00:35:02.252Z,0.51
2023-04-25T00:36:02.310Z,0.37
2023-04-25T00:37:02.331Z,0.33
2023-04-25T00:38:02.397Z,0.64
2023-04-25T00:39:02.448Z,0.26
2023-04-25T00:40:02.522Z,0.46
2023-04-25T00:41:02.520Z,0.30
2023-04-25T00:42:02.537Z,0.34
2023-04-25T00:43:02.605Z,0.39
2023-04-25T00:44:02.657Z,0.35
2023-04-25T00:45:02.690Z,0.31
2023-04-25T00:46:02.795Z,0.46
2023-04-25T00:47:02.822Z,0.18
2023-04-25T00:48:02.837Z,0.18
2023-04-25T00:49:02.855Z,0.24
2023-04-25T00:50:02.911Z,0.28
2023-04-25T00:51:02.938Z,0.40
2023-04-25T00:52:03.031Z,0.19
2023-04-25T00:53:03.043Z,0.38
2023-04-25T00:54:03.054Z,0.32
2023-04-25T00:55:03.137Z,0.43
2023-04-25T00:56:03.146Z,0.27
2023-04-25T00:57:03.295Z,0.26
2023-04-25T00:58:03.284Z,0.59
2023-04-25T00:59:03.344Z,0.36
2023-04-25T01:00:03.344Z,0.38
2023-04-25T01:01:03.468Z,0.42
2023-04-25T01:02:03.424Z,0.28
2023-04-25T01:03:03.567Z,0.23
2023-04-25T01:04:03.605Z,0.28
2023-04-25T01:05:03.585Z,0.21
2023-04-25T01:06:03.677Z,0.22
2023-04-25T01:07:03.664Z,0.36
2023-04-25T01:08:03.763Z,0.21
2023-04-25T01:09:03.843Z,0.53
2023-04-25T01:10:03.825Z,0.26
2023-04-25T01:11:03.926Z,0.28
2023-04-25T01:12:04.057Z,0.50
2023-04-25T01:13:03.985Z,0.24
2023-04-25T01:14:04.065Z,0.17
2023-04-25T01:15:04.086Z,0.19
2023-04-25T01:16:04.164Z,0.19
2023-04-25T01:17:04.276Z,0.28
2023-04-25T01:18:04.298Z,0.41
2023-04-25T01:19:04.284Z,0.32
2023-04-25T01:20:04.335Z,0.26
2023-04-25T01:21:04.442Z,0.13
2023-04-25T01:22:04.472Z,0.38
2023-04-25T01:23:04.467Z,0.33
2023-04-25T01:24:04.520Z,0.20
2023-04-25T01:25:04.642Z,0.39
2023-04-25T01:26:04.645Z,0.25
2023-04-25T01:27:04.692Z,0.45
2023-04-25T01:28:04.695Z,0.29
2023-04-25T01:29:04.768Z,0.35
2023-04-25T01:30:04.819Z,0.26
2023-04-25T01:31:04.890Z,0.20
2023-04-25T01:32:04.953Z,0.16
2023-04-25T01:33:05.057Z,0.44
2023-04-25T01:34:05.025Z,0.30
2023-04-25T01:35:05.116Z,0.24
2023-04-25T01:36:05.179Z,0.26
2023-04-25T01:37:05.165Z,0.29
2023-04-25T01:38:05.371Z,0.20
2023-04-25T01:39:05.263Z,0.33
2023-04-25T01:40:05.304Z,0.18
2023-04-25T01:41:05.392Z,0.46
2023-04-25T01:42:05.432Z,0.25
2023-04-25T01:43:05.507Z,0.15
2023-04-25T01:44:05.646Z,0.39
2023-04-25T01:45:05.628Z,0.17
2023-04-25T01:46:05.661Z,0.19
2023-04-25T01:47:05.708Z,0.43
2023-04-25T01:48:05.802Z,0.38
2023-04-25T01:49:05.798Z,0.29
2023-04-25T01:50:05.870Z,0.30
2023-04-25T01:51:05.990Z,0.25
2023-04-25T01:52:05.986Z,0.15
2023-04-25T01:53:06.067Z,0.39
2023-04-25T01:54:06.122Z,0.38
2023-04-25T01:55:06.176Z,0.29
2023-04-25T01:56:06.229Z,0.33
2023-04-25T01:57:06.275Z,0.23
2023-04-25T01:58:06.413Z,0.33
2023-04-25T01:59:06.386Z,0.17
2023-04-25T02:00:06.466Z,0.25
2023-04-25T02:01:06.533Z,0.48
2023-04-25T02:02:06.597Z,0.30
2023-04-25T02:03:06.763Z,0.47
2023-04-25T02:04:06.918Z,0.43
2023-04-25T02:05:06.675Z,0.33
2023-04-25T02:06:06.758Z,0.45
2023-04-25T02:07:06.815Z,0.22
2023-04-25T02:08:06.891Z,0.33
2023-04-25T02:09:06.928Z,0.25
2023-04-25T02:10:06.986Z,0.17
2023-04-25T02:11:07.055Z,0.28
2023-04-25T02:12:07.108Z,0.30
2023-04-25T02:13:07.164Z,0.39
2023-04-25T02:14:07.211Z,0.23
2023-04-25T02:15:07.256Z,0.22
2023-04-25T02:16:07.417Z,0.33
2023-04-25T02:17:07.522Z,0.21
2023-04-25T02:18:07.551Z,0.25
2023-04-25T02:19:07.496Z,0.26
2023-04-25T02:20:07.532Z,0.35
2023-04-25T02:21:07.625Z,0.39
2023-04-25T02:22:07.707Z,0.28
2023-04-25T02:23:07.766Z,0.24
2023-04-25T02:24:07.862Z,0.38
2023-04-25T02:25:07.916Z,0.40
2023-04-25T02:26:07.928Z,0.45
2023-04-25T02:27:08.052Z,0.28
2023-04-25T02:28:08.049Z,0.37
2023-04-25T02:29:08.101Z,0.15
2023-04-25T02:30:08.170Z,0.17
2023-04-25T02:31:08.395Z,0.12
2023-04-25T02:32:08.328Z,0.24
2023-04-25T02:33:08.449Z,0.24
2023-04-25T02:34:08.808Z,0.31
2023-04-25T02:35:08.498Z,0.49
2023-04-25T02:36:08.551Z,0.28
2023-04-25T02:37:08.622Z,0.52
2023-04-25T02:38:08.636Z,0.41
2023-04-25T02:39:08.739Z,0.27
2023-04-25T02:40:08.787Z,0.36
2023-04-25T02:41:08.817Z,0.22
2023-04-25T02:42:08.905Z,0.26
2023-04-25T02:43:08.961Z,0.15
2023-04-25T02:44:09.020Z,0.92
2023-04-25T02:45:09.054Z,0.33
2023-04-25T02:46:09.188Z,0.31
2023-04-25T02:47:09.245Z,0.40
2023-04-25T02:48:09.266Z,0.28
2023-04-25T02:49:09.298Z,0.26
2023-04-25T02:50:09.386Z,0.33
2023-04-25T02:51:09.416Z,0.20
2023-04-25T02:52:09.557Z,0.42
2023-04-25T02:53:09.583Z,0.48
2023-04-25T02:54:09.605Z,0.45
2023-04-25T02:55:09.677Z,0.32
2023-04-25T02:56:09.721Z,0.20
2023-04-25T02:57:09.801Z,0.28
2023-04-25T02:58:09.802Z,0.21
2023-04-25T02:59:09.913Z,0.25
2023-04-25T03:00:09.944Z,0.24
2023-04-25T03:01:10.129Z,0.37
2023-04-25T03:02:10.097Z,0.48
2023-04-25T03:03:10.280Z,0.36
2023-04-25T03:04:10.401Z,0.22
2023-04-25T03:05:10.317Z,0.24
2023-04-25T03:06:10.338Z,0.19
2023-04-25T03:07:10.377Z,0.37
2023-04-25T03:08:10.414Z,0.36
2023-04-25T03:09:10.510Z,0.32
2023-04-25T03:10:10.572Z,0.29
2023-04-25T03:11:10.626Z,0.19
2023-04-25T03:12:10.642Z,0.33
2023-04-25T03:13:10.732Z,0.33
2023-04-25T03:14:10.801Z,0.20
2023-04-25T03:15:10.801Z,0.24
2023-04-25T03:16:10.903Z,0.34
2023-04-25T03:17:11.028Z,0.30
2023-04-25T03:18:11.038Z,0.21
2023-04-25T03:19:11.049Z,0.37
2023-04-25T03:20:11.091Z,0.10
2023-04-25T03:21:11.125Z,0.31
2023-04-25T03:22:11.228Z,0.32
2023-04-25T03:23:11.322Z,0.34
2023-04-25T03:24:11.335Z,0.42
2023-04-25T03:25:11.306Z,0.16
2023-04-25T03:26:11.389Z,0.30
2023-04-25T03:27:11.402Z,0.22
2023-04-25T03:28:11.450Z,0.23
2023-04-25T03:29:12.390Z,0.22
2023-04-25T03:30:11.535Z,0.15
2023-04-25T03:31:11.536Z,0.22
2023-04-25T03:32:11.566Z,0.16
2023-04-25T03:33:11.692Z,0.27
2023-04-25T03:34:11.560Z,0.25
2023-04-25T03:35:11.610Z,0.19
2023-04-25T03:36:11.671Z,0.27
2023-04-25T03:37:11.808Z,0.32
2023-04-25T03:38:11.627Z,0.32
2023-04-25T03:39:11.698Z,0.25
2023-04-25T03:40:11.700Z,0.58
2023-04-25T03:41:11.743Z,0.34
2023-04-25T03:42:11.767Z,0.34
2023-04-25T03:43:11.770Z,0.52
2023-04-25T03:44:11.752Z,0.44
2023-04-25T03:45:11.770Z,0.27
2023-04-25T03:46:11.826Z,0.47
2023-04-25T03:47:11.799Z,0.27
2023-04-25T03:48:11.782Z,0.26
2023-04-25T03:49:11.877Z,0.27
2023-04-25T03:50:11.836Z,0.20
2023-04-25T03:51:11.918Z,0.30
2023-04-25T03:52:12.322Z,0.29
2023-04-25T03:53:11.914Z,0.30
2023-04-25T03:54:11.929Z,0.25
2023-04-25T03:55:11.935Z,0.27
2023-04-25T03:56:11.940Z,0.16
2023-04-25T03:57:11.936Z,0.24
2023-04-25T03:58:11.948Z,1.17
2023-04-25T03:59:11.978Z,0.24
2023-04-25T04:00:11.970Z,0.39
2023-04-25T04:01:11.965Z,0.23
2023-04-25T04:02:12.052Z,0.31
2023-04-25T04:03:12.143Z,0.23
2023-04-25T04:04:12.072Z,0.30
2023-04-25T04:05:12.051Z,0.25
2023-04-25T04:06:11.919Z,0.38
2023-04-25T04:07:12.010Z,0.22
2023-04-25T04:08:12.022Z,0.45
2023-04-25T04:09:12.018Z,0.48
2023-04-25T04:10:11.992Z,0.49
2023-04-25T04:11:12.016Z,0.59
2023-04-25T04:12:12.018Z,0.45
2023-04-25T04:13:11.955Z,0.42
2023-04-25T04:14:11.958Z,0.30
2023-04-25T04:15:11.978Z,0.33
2023-04-25T04:16:12.027Z,0.56
2023-04-25T04:17:12.047Z,0.34
2023-04-25T04:18:12.019Z,0.44
2023-04-25T04:19:11.959Z,0.42
2023-04-25T04:20:11.965Z,0.40
2023-04-25T04:21:12.036Z,0.43
2023-04-25T04:22:11.944Z,0.36
2023-04-25T04:23:12.019Z,0.72
2023-04-25T04:24:12.011Z,0.43
2023-04-25T04:25:11.992Z,0.37
2023-04-25T04:26:11.985Z,0.62
2023-04-25T04:27:12.006Z,0.60
2023-04-25T04:28:12.075Z,0.48
2023-04-25T04:29:12.036Z,0.46
2023-04-25T04:30:12.861Z,0.40
2023-04-25T04:31:12.133Z,0.66
2023-04-25T04:32:12.074Z,0.54
2023-04-25T04:33:12.126Z,0.48
2023-04-25T04:34:12.096Z,0.31
2023-04-25T04:35:12.115Z,0.40
2023-04-25T04:36:12.143Z,0.45
2023-04-25T04:37:12.144Z,0.48
2023-04-25T04:38:12.181Z,0.71
2023-04-25T04:39:12.155Z,0.60
2023-04-25T04:40:12.233Z,0.38
2023-04-25T04:41:12.207Z,0.34
2023-04-25T04:42:12.189Z,0.56
2023-04-25T04:43:12.252Z,0.51
2023-04-25T04:44:12.282Z,0.37
2023-04-25T04:45:12.231Z,0.48
2023-04-25T04:46:12.271Z,0.51
2023-04-25T04:47:12.204Z,0.36
2023-04-25T04:48:12.267Z,0.59
2023-04-25T04:49:12.415Z,0.34
2023-04-25T04:50:12.295Z,0.58
2023-04-25T04:51:12.322Z,0.46
2023-04-25T04:52:12.289Z,0.53
2023-04-25T04:53:12.289Z,0.43
2023-04-25T04:54:12.295Z,0.36
2023-04-25T04:55:12.386Z,0.52
2023-04-25T04:56:12.418Z,0.26
2023-04-25T04:57:12.352Z,0.57
2023-04-25T04:58:12.328Z,0.59
2023-04-25T04:59:12.384Z,0.58
2023-04-25T05:00:12.316Z,0.61
2023-04-25T05:01:12.365Z,0.50
2023-04-25T05:02:12.449Z,0.62
2023-04-25T05:03:12.539Z,0.39
2023-04-25T05:04:12.541Z,0.49
2023-04-25T05:05:12.364Z,0.36
2023-04-25T05:06:12.377Z,0.46
2023-04-25T05:07:12.398Z,0.33
2023-04-25T05:08:12.343Z,0.53
2023-04-25T05:09:12.382Z,0.40
2023-04-25T05:10:12.346Z,0.49
2023-04-25T05:11:12.441Z,0.65
2023-04-25T05:12:12.374Z,0.39
2023-04-25T05:13:12.442Z,0.35
2023-04-25T05:14:12.443Z,0.38
2023-04-25T05:15:13.395Z,0.61
2023-04-25T05:16:12.442Z,0.61
2023-04-25T05:17:12.410Z,0.75
2023-04-25T05:18:12.514Z,0.58
2023-04-25T05:19:12.462Z,0.73
2023-04-25T05:20:12.450Z,0.75
2023-04-25T05:21:12.483Z,0.71
2023-04-25T05:22:12.536Z,0.66
2023-04-25T05:23:12.523Z,0.60
2023-04-25T05:24:12.582Z,0.58
2023-04-25T05:25:12.650Z,0.86
2023-04-25T05:26:12.597Z,0.59
2023-04-25T05:27:12.665Z,0.63
2023-04-25T05:28:12.652Z,0.68
2023-04-25T05:29:12.766Z,0.67
2023-04-25T05:30:12.956Z,0.49
2023-04-25T05:31:12.745Z,0.75
2023-04-25T05:32:12.842Z,0.61
2023-04-25T05:33:12.850Z,0.70
2023-04-25T05:34:12.852Z,0.69
2023-04-25T05:35:12.872Z,0.85
2023-04-25T05:36:13.047Z,0.92
2023-04-25T05:37:12.920Z,1.10
2023-04-25T05:38:13.030Z,1.03
2023-04-25T05:39:12.948Z,1.04
2023-04-25T05:40:12.952Z,0.90
2023-04-25T05:41:12.950Z,0.97
2023-04-25T05:42:13.367Z,1.11
2023-04-25T05:43:13.030Z,0.74
2023-04-25T05:44:13.040Z,0.82
2023-04-25T05:45:13.192Z,1.14
2023-04-25T05:46:13.131Z,0.92
2023-04-25T05:47:13.409Z,1.51
2023-04-25T05:48:13.127Z,1.08
2023-04-25T05:49:13.003Z,1.36
2023-04-25T05:50:13.231Z,1.25
2023-04-25T05:51:13.022Z,0.82
2023-04-25T05:52:13.148Z,0.89
2023-04-25T05:53:13.009Z,1.09
2023-04-25T05:54:13.081Z,1.06
2023-04-25T05:55:13.107Z,0.78
2023-04-25T05:56:13.050Z,0.80
2023-04-25T05:57:13.115Z,1.09
2023-04-25T05:58:13.161Z,0.87
2023-04-25T05:59:13.220Z,0.90
2023-04-25T06:00:13.281Z,0.94
2023-04-25T06:01:13.350Z,0.65
2023-04-25T06:02:13.596Z,0.78
2023-04-25T06:03:13.708Z,1.11
2023-04-25T06:04:14.182Z,0.50
2023-04-25T06:05:13.719Z,0.73
2023-04-25T06:06:13.677Z,0.84
2023-04-25T06:07:13.677Z,1.03
2023-04-25T06:08:13.695Z,0.94
2023-04-25T06:09:14.551Z,0.92
2023-04-25T06:10:13.910Z,0.99
2023-04-25T06:11:13.969Z,0.80
2023-04-25T06:12:13.871Z,0.85
2023-04-25T06:13:13.938Z,0.53
2023-04-25T06:14:14.402Z,0.78
2023-04-25T06:15:27.174Z,0.79
2023-04-25T06:16:15.942Z,0.93
2023-04-25T06:17:13.961Z,0.70
2023-04-25T06:18:14.486Z,1.21
2023-04-25T06:19:13.942Z,1.12
2023-04-25T06:20:13.975Z,0.88
2023-04-25T06:21:14.027Z,0.90
2023-04-25T06:22:13.930Z,0.77
2023-04-25T06:23:14.008Z,0.74
2023-04-25T06:24:14.421Z,0.86
2023-04-25T06:25:13.965Z,1.03
2023-04-25T06:26:13.928Z,0.59
2023-04-25T06:27:16.435Z,0.81
2023-04-25T06:28:13.929Z,1.09
2023-04-25T06:29:13.942Z,1.03
2023-04-25T06:30:13.892Z,0.70
2023-04-25T06:31:14.043Z,0.71
2023-04-25T06:32:13.852Z,0.99
2023-04-25T06:33:13.982Z,0.72
2023-04-25T06:34:13.876Z,0.68
2023-04-25T06:35:13.876Z,0.70
2023-04-25T06:36:13.884Z,0.93
2023-04-25T06:37:13.900Z,1.30
2023-04-25T06:38:13.852Z,1.13
2023-04-25T06:39:13.947Z,1.05
2023-04-25T06:40:13.898Z,1.44
2023-04-25T06:41:13.927Z,1.40
2023-04-25T06:42:13.821Z,1.70
2023-04-25T06:43:13.900Z,1.20
2023-04-25T06:44:13.829Z,0.97
2023-04-25T06:45:13.902Z,1.54
2023-04-25T06:46:13.931Z,1.27
2023-04-25T06:47:13.777Z,1.33
2023-04-25T06:48:13.813Z,1.34
2023-04-25T06:49:14.438Z,1.04
2023-04-25T06:50:15.566Z,1.07
2023-04-25T06:51:13.777Z,1.23
2023-04-25T06:52:13.783Z,1.48
2023-04-25T06:53:13.736Z,1.33
2023-04-25T06:54:13.765Z,1.11
2023-04-25T06:55:13.755Z,1.30
2023-04-25T06:56:13.765Z,1.41
2023-04-25T06:57:13.734Z,1.05
2023-04-25T06:58:13.727Z,1.22
2023-04-25T06:59:13.711Z,1.01
2023-04-25T07:00:13.942Z,0.99
2023-04-25T07:01:13.774Z,0.96
2023-04-25T07:02:13.929Z,1.11
2023-04-25T07:03:14.090Z,0.79
2023-04-25T07:04:14.013Z,0.97
2023-04-25T07:05:13.944Z,1.27
2023-04-25T07:06:13.958Z,1.10
2023-04-25T07:07:13.944Z,1.21
2023-04-25T07:08:14.049Z,1.02
2023-04-25T07:09:14.122Z,1.34
2023-04-25T07:10:14.022Z,1.12
2023-04-25T07:11:14.044Z,1.19
2023-04-25T07:12:14.089Z,0.72
2023-04-25T07:13:14.140Z,1.09
2023-04-25T07:14:14.101Z,1.20
2023-04-25T07:15:14.170Z,0.70
2023-04-25T07:16:14.265Z,0.95
2023-04-25T07:17:14.282Z,0.82
2023-04-25T07:18:14.324Z,0.62
2023-04-25T07:19:14.383Z,0.95
2023-04-25T07:20:14.494Z,1.19
2023-04-25T07:21:14.493Z,1.15
2023-04-25T07:22:14.514Z,0.90
2023-04-25T07:23:14.584Z,0.72
2023-04-25T07:24:14.579Z,0.84
2023-04-25T07:25:14.626Z,0.69
2023-04-25T07:26:14.729Z,0.95
2023-04-25T07:27:14.641Z,0.77
2023-04-25T07:28:14.696Z,0.64
2023-04-25T07:29:14.706Z,0.65
2023-04-25T07:30:14.731Z,0.56
2023-04-25T07:31:14.736Z,0.77
2023-04-25T07:32:14.903Z,0.89
2023-04-25T07:33:14.917Z,1.00
2023-04-25T07:34:15.498Z,1.01
2023-04-25T07:35:14.796Z,0.85
2023-04-25T07:36:15.468Z,0.94
2023-04-25T07:37:14.807Z,1.15
2023-04-25T07:38:14.860Z,1.29
2023-04-25T07:39:14.764Z,1.16
2023-04-25T07:40:14.773Z,1.59
2023-04-25T07:41:14.836Z,1.12
2023-04-25T07:42:14.803Z,1.32
2023-04-25T07:43:14.832Z,0.91
2023-04-25T07:44:14.848Z,0.96
2023-04-25T07:45:14.883Z,0.75
2023-04-25T07:46:15.044Z,0.99
2023-04-25T07:47:14.893Z,0.94
2023-04-25T07:48:14.891Z,0.75
2023-04-25T07:49:14.885Z,0.76
2023-04-25T07:50:14.912Z,1.11
2023-04-25T07:51:14.900Z,0.86
2023-04-25T07:52:14.887Z,0.65
2023-04-25T07:53:14.884Z,0.79
2023-04-25T07:54:14.921Z,0.88
2023-04-25T07:55:14.985Z,0.68
2023-04-25T07:56:14.915Z,1.00
2023-04-25T07:57:14.866Z,0.86
2023-04-25T07:58:14.866Z,0.90
2023-04-25T07:59:14.921Z,1.13
2023-04-25T08:00:15.012Z,1.15
2023-04-25T08:01:14.941Z,0.73
2023-04-25T08:02:15.050Z,0.52
2023-04-25T08:03:15.280Z,0.80
2023-04-25T08:04:15.270Z,0.67
2023-04-25T08:05:15.389Z,0.65
2023-04-25T08:06:15.343Z,0.53
2023-04-25T08:07:15.295Z,0.70
2023-04-25T08:08:15.421Z,0.78
2023-04-25T08:09:15.402Z,0.75
2023-04-25T08:10:15.442Z,0.95
2023-04-25T08:11:15.508Z,0.73
2023-04-25T08:12:15.556Z,0.57
2023-04-25T08:13:15.630Z,0.54
2023-04-25T08:14:15.683Z,0.68
2023-04-25T08:15:15.754Z,0.59
2023-04-25T08:16:15.775Z,0.54
2023-04-25T08:17:15.858Z,0.63
2023-04-25T08:18:17.676Z,0.88
2023-04-25T08:19:15.926Z,0.81
2023-04-25T08:20:15.975Z,0.59
2023-04-25T08:21:16.057Z,0.85
2023-04-25T08:22:16.096Z,0.83
2023-04-25T08:23:16.443Z,0.55
2023-04-25T08:24:16.213Z,0.60
2023-04-25T08:25:16.319Z,0.71
2023-04-25T08:26:16.369Z,0.93
2023-04-25T08:27:16.452Z,0.89
2023-04-25T08:28:16.503Z,1.10
2023-04-25T08:29:16.610Z,1.33
2023-04-25T08:30:16.968Z,1.04
2023-04-25T08:31:16.620Z,1.20
2023-04-25T08:32:16.565Z,1.15
2023-04-25T08:33:16.647Z,0.67
2023-04-25T08:34:16.635Z,1.13
2023-04-25T08:35:16.643Z,1.40
2023-04-25T08:36:24.217Z,1.56
2023-04-25T08:37:17.843Z,0.97
2023-04-25T08:38:16.608Z,1.38
2023-04-25T08:39:16.618Z,1.27
2023-04-25T08:40:16.628Z,1.13
2023-04-25T08:41:16.631Z,1.72
2023-04-25T08:42:16.582Z,1.28
2023-04-25T08:43:16.647Z,0.82
2023-04-25T08:44:16.604Z,1.40
2023-04-25T08:45:16.553Z,1.46
2023-04-25T08:46:16.587Z,1.68
2023-04-25T08:47:16.618Z,1.37
2023-04-25T08:48:17.498Z,1.91
2023-04-25T08:49:16.516Z,2.27
2023-04-25T08:50:17.010Z,1.57
2023-04-25T08:51:16.636Z,1.83
2023-04-25T08:52:16.662Z,1.52
2023-04-25T08:53:16.828Z,1.10
2023-04-25T08:54:34.045Z,1.40
2023-04-25T08:55:18.081Z,1.43
2023-04-25T08:56:16.720Z,1.26
2023-04-25T08:57:16.778Z,1.56
2023-04-25T08:58:17.363Z,1.07
2023-04-25T08:59:16.689Z,1.13
2023-04-25T09:00:16.958Z,1.21
2023-04-25T09:01:16.760Z,1.04
2023-04-25T09:02:16.802Z,1.14
2023-04-25T09:03:16.959Z,1.12
2023-04-25T09:04:16.770Z,1.24
2023-04-25T09:05:16.747Z,0.89
2023-04-25T09:06:16.830Z,1.02
2023-04-25T09:07:16.679Z,0.85
2023-04-25T09:08:16.649Z,0.99
2023-04-25T09:09:16.660Z,0.97
2023-04-25T09:10:16.965Z,1.01
2023-04-25T09:11:16.780Z,1.10
2023-04-25T09:12:16.635Z,1.20
2023-04-25T09:13:16.637Z,0.98
2023-04-25T09:14:16.669Z,1.67
2023-04-25T09:16:16.754Z,0.88
2023-04-25T09:17:16.609Z,0.91
2023-04-25T09:18:16.555Z,0.94
2023-04-25T09:19:16.585Z,1.07
2023-04-25T09:20:16.626Z,0.92
2023-04-25T09:21:16.623Z,0.96
2023-04-25T09:22:17.001Z,0.93
2023-04-25T09:23:16.676Z,0.83
2023-04-25T09:24:16.547Z,1.57
2023-04-25T09:25:16.569Z,0.79
2023-04-25T09:26:16.529Z,0.95
2023-04-25T09:27:16.978Z,0.93
2023-04-25T09:28:16.601Z,0.85
2023-04-25T09:29:17.468Z,0.55
2023-04-25T09:30:16.560Z,0.85
2023-04-25T09:31:16.961Z,0.94
2023-04-25T09:32:16.737Z,1.57
2023-04-25T09:33:16.599Z,1.43
2023-04-25T09:34:17.101Z,1.46
2023-04-25T09:35:16.487Z,1.83
2023-04-25T09:36:16.499Z,1.36
2023-04-25T09:37:16.519Z,1.36
2023-04-25T09:38:16.616Z,1.24
2023-04-25T09:39:16.479Z,1.35
2023-04-25T09:40:16.534Z,1.33
2023-04-25T09:41:17.942Z,1.41
2023-04-25T09:42:16.419Z,1.29
2023-04-25T09:43:16.447Z,1.40
2023-04-25T09:44:16.498Z,1.45
2023-04-25T09:45:16.450Z,1.22
2023-04-25T09:46:16.436Z,1.64
2023-04-25T09:47:16.400Z,1.55
2023-04-25T09:48:16.466Z,1.73
2023-04-25T09:49:16.488Z,1.60
2023-04-25T09:50:16.380Z,1.66
2023-04-25T09:51:16.441Z,1.49
2023-04-25T09:52:17.000Z,1.70
2023-04-25T09:53:16.408Z,1.84
2023-04-25T09:54:16.360Z,1.80
2023-04-25T09:55:16.432Z,1.40
2023-04-25T09:56:16.354Z,1.30
2023-04-25T09:57:16.473Z,1.32
2023-04-25T09:58:16.980Z,1.51
2023-04-25T09:59:16.357Z,1.53
2023-04-25T10:00:16.683Z,1.72
2023-04-25T10:01:16.314Z,1.88
2023-04-25T10:02:16.723Z,1.53
2023-04-25T10:03:16.438Z,1.77
2023-04-25T10:04:16.383Z,1.55
2023-04-25T10:05:16.380Z,1.86
2023-04-25T10:06:16.308Z,2.01
2023-04-25T10:07:16.293Z,1.71
2023-04-25T10:08:16.291Z,1.94
2023-04-25T10:09:16.302Z,1.86
2023-04-25T10:10:16.417Z,1.94
2023-04-25T10:11:16.410Z,1.71
2023-04-25T10:12:16.467Z,2.04
2023-04-25T10:13:16.538Z,1.63
2023-04-25T10:14:16.438Z,1.44
2023-04-25T10:15:16.997Z,1.70
2023-04-25T10:16:16.480Z,1.87
2023-04-25T10:17:16.458Z,1.42
2023-04-25T10:18:17.135Z,2.00
2023-04-25T10:19:16.520Z,2.00
2023-04-25T10:20:16.631Z,1.71
2023-04-25T10:21:16.690Z,1.90
2023-04-25T10:22:16.632Z,1.96
2023-04-25T10:23:17.049Z,1.99
2023-04-25T10:24:16.765Z,2.04
2023-04-25T10:25:16.854Z,2.30
2023-04-25T10:26:17.474Z,1.86
2023-04-25T10:27:16.938Z,2.25
2023-04-25T10:28:16.929Z,2.11
2023-04-25T10:29:17.014Z,1.93
2023-04-25T10:30:17.585Z,1.54
2023-04-25T10:31:17.105Z,2.08
2023-04-25T10:32:17.019Z,2.07
2023-04-25T10:33:16.984Z,1.87
2023-04-25T10:34:17.035Z,1.90
2023-04-25T10:35:17.534Z,1.90
2023-04-25T10:36:17.166Z,1.72
2023-04-25T10:37:17.103Z,1.61
2023-04-25T10:38:17.160Z,1.82
2023-04-25T10:39:17.130Z,1.86
2023-04-25T10:40:17.545Z,1.71
2023-04-25T10:41:17.304Z,1.40
2023-04-25T10:42:17.282Z,1.67
2023-04-25T10:43:17.367Z,1.55
2023-04-25T10:44:17.674Z,1.39
2023-04-25T10:45:17.417Z,1.42
2023-04-25T10:46:17.522Z,1.17
2023-04-25T10:47:17.489Z,1.31
2023-04-25T10:48:17.493Z,1.04
2023-04-25T10:49:18.002Z,1.41
2023-04-25T10:50:17.555Z,1.05
2023-04-25T10:51:17.538Z,1.15
2023-04-25T10:52:18.550Z,1.05
2023-04-25T10:53:17.653Z,1.04
2023-04-25T10:54:17.632Z,1.09
2023-04-25T10:55:17.593Z,1.00
2023-04-25T10:56:17.695Z,1.30
2023-04-25T10:57:17.654Z,0.96
2023-04-25T10:58:17.654Z,1.03
2023-04-25T10:59:17.708Z,0.94
2023-04-25T11:00:17.788Z,0.74
2023-04-25T11:01:17.899Z,0.78
2023-04-25T11:02:18.077Z,0.95
2023-04-25T11:03:18.069Z,1.30
2023-04-25T11:04:18.107Z,1.05
2023-04-25T11:05:19.640Z,1.21
2023-04-25T11:06:18.044Z,0.59
2023-04-25T11:07:18.047Z,0.91
2023-04-25T11:08:18.028Z,0.85
2023-04-25T11:09:18.048Z,0.66
2023-04-25T11:10:18.078Z,1.23
2023-04-25T11:11:18.062Z,0.81
2023-04-25T11:12:18.589Z,0.87
2023-04-25T11:13:18.022Z,1.07
2023-04-25T11:14:18.006Z,1.00
2023-04-25T11:15:18.022Z,0.79
2023-04-25T11:17:19.039Z,1.17
2023-04-25T11:18:18.165Z,0.99
2023-04-25T11:19:19.078Z,1.08
2023-04-25T11:20:18.159Z,0.84
2023-04-25T11:21:18.094Z,1.26
2023-04-25T11:22:18.601Z,0.95
2023-04-25T11:23:18.204Z,0.94
2023-04-25T11:24:18.186Z,1.01
2023-04-25T11:25:18.319Z,1.14
2023-04-25T11:26:18.251Z,1.96
2023-04-25T11:27:18.267Z,0.80
2023-04-25T11:28:18.309Z,0.88
2023-04-25T11:29:18.385Z,0.85
2023-04-25T11:30:18.417Z,0.72
2023-04-25T11:31:18.646Z,0.97
2023-04-25T11:32:19.331Z,0.78
2023-04-25T11:33:18.581Z,0.63
2023-04-25T11:34:18.511Z,0.51
2023-04-25T11:35:18.562Z,1.31
2023-04-25T11:36:18.523Z,0.76
2023-04-25T11:37:18.585Z,0.69
2023-04-25T11:38:18.568Z,0.65
2023-04-25T11:39:18.495Z,0.86
2023-04-25T11:40:18.522Z,0.62
2023-04-25T11:41:18.493Z,0.90
2023-04-25T11:42:18.517Z,0.94
2023-04-25T11:43:21.419Z,1.25
2023-04-25T11:44:18.442Z,0.77
2023-04-25T11:45:18.491Z,1.06
2023-04-25T11:46:18.475Z,0.75
2023-04-25T11:47:18.611Z,0.71
2023-04-25T11:48:18.558Z,0.73
2023-04-25T11:49:18.414Z,0.94
2023-04-25T11:50:18.464Z,0.77
2023-04-25T11:51:18.436Z,0.64
2023-04-25T11:52:18.437Z,0.66
2023-04-25T11:53:18.392Z,0.49
2023-04-25T11:54:18.493Z,0.55
2023-04-25T11:55:18.405Z,0.66
2023-04-25T11:56:18.412Z,0.64
2023-04-25T11:57:18.366Z,0.62
2023-04-25T11:58:18.387Z,0.47
2023-04-25T11:59:18.430Z,0.45
2023-04-25T12:00:19.269Z,0.39
2023-04-25T12:01:18.349Z,0.66
2023-04-25T12:02:18.630Z,0.46
2023-04-25T12:03:18.495Z,0.87
2023-04-25T12:04:19.288Z,1.15
2023-04-25T12:06:19.105Z,0.61
2023-04-25T12:07:18.329Z,0.71
2023-04-25T12:08:18.349Z,0.58
2023-04-25T12:09:18.356Z,0.42
2023-04-25T12:10:18.340Z,0.49
2023-04-25T12:11:18.307Z,0.48
2023-04-25T12:12:18.609Z,0.46
2023-04-25T12:13:18.342Z,0.41
2023-04-25T12:14:18.270Z,0.55
2023-04-25T12:15:18.590Z,0.26
2023-04-25T12:16:18.334Z,0.43
2023-04-25T12:17:18.324Z,0.92
2023-04-25T12:18:18.356Z,1.01
2023-04-25T12:19:18.269Z,0.50
2023-04-25T12:20:19.193Z,0.89
2023-04-25T12:21:18.283Z,0.42
2023-04-25T12:22:18.237Z,0.62
2023-04-25T12:23:18.288Z,0.39
2023-04-25T12:24:18.245Z,0.48
2023-04-25T12:25:18.209Z,0.62
2023-04-25T12:26:18.215Z,0.43
2023-04-25T12:27:18.204Z,0.55
2023-04-25T12:28:18.233Z,0.78
2023-04-25T12:29:18.320Z,0.69
2023-04-25T12:30:18.311Z,0.94
2023-04-25T12:31:18.501Z,0.80
2023-04-25T12:32:18.515Z,0.61
2023-04-25T12:33:18.543Z,0.64
2023-04-25T12:34:18.567Z,0.52
2023-04-25T12:35:18.713Z,0.31
2023-04-25T12:36:18.737Z,0.38
2023-04-25T12:37:18.732Z,0.32
2023-04-25T12:38:19.116Z,0.46
2023-04-25T12:39:18.904Z,0.33
2023-04-25T12:40:18.997Z,0.51
2023-04-25T12:41:19.005Z,0.61
2023-04-25T12:42:19.081Z,0.59
2023-04-25T12:43:19.225Z,0.40
2023-04-25T12:44:19.152Z,0.69
2023-04-25T12:45:19.225Z,0.67
2023-04-25T12:46:19.363Z,0.56
2023-04-25T12:47:19.428Z,0.54
2023-04-25T12:48:20.044Z,0.51
2023-04-25T12:49:19.746Z,0.51
2023-04-25T12:50:19.564Z,0.55
2023-04-25T12:51:19.592Z,0.48
2023-04-25T12:52:19.669Z,0.48
2023-04-25T12:53:19.712Z,0.51
2023-04-25T12:54:19.821Z,0.47
2023-04-25T12:55:19.856Z,0.76
2023-04-25T12:56:22.212Z,0.47
2023-04-25T12:57:19.892Z,0.62
2023-04-25T12:58:19.869Z,0.55
2023-04-25T12:59:19.918Z,0.60
2023-04-25T13:00:19.854Z,0.67
2023-04-25T13:01:19.948Z,0.48
2023-04-25T13:02:20.015Z,0.35
2023-04-25T13:03:19.931Z,0.47
2023-04-25T13:04:19.965Z,0.62
2023-04-25T13:05:19.856Z,0.40
2023-04-25T13:06:19.822Z,0.53
2023-04-25T13:07:19.928Z,0.51
2023-04-25T13:08:19.887Z,0.46
2023-04-25T13:09:19.813Z,0.50
2023-04-25T13:10:19.820Z,0.41
2023-04-25T13:11:19.824Z,0.47
2023-04-25T13:12:19.834Z,0.43
2023-04-25T13:13:19.843Z,0.30
2023-04-25T13:14:19.810Z,0.70
2023-04-25T13:15:19.819Z,0.39
2023-04-25T13:16:19.809Z,0.96
2023-04-25T13:17:19.818Z,0.46
2023-04-25T13:18:19.791Z,0.42
2023-04-25T13:19:19.764Z,0.44
2023-04-25T13:20:19.788Z,0.35
2023-04-25T13:21:20.110Z,0.32